Custom file does not exist C:\wdisplay\webfiles\testtags.txt Borgafjälls vädersida - Nearby METAR Reports

Nearby METAR Reports

 

KSJC - San Jose, California, USA
Distance from station: NO 14km
Uppdaterad: 03/03/2021 08:53
vervgande molnigt
vervgande molnigt
 Vind frn VNV
Vind: VNV 6 km/h
Temperatur: 11°C
Daggpunkt: 7°C
Luftfuktighet: 77%
Barometer: 1009.5 hPa
Clouds: vervgande molnigt
Visibility: 16 km
Cloud details: Few Clouds 1524 m
Delvis molnigt 3353 m
vervgande molnigt 4572 m
2021/03/03 07:53 KSJC 030753Z 30003KT 10SM FEW050 SCT110 BKN150 11/07 A2981 RMK AO2 SLP092 LAST T01110067 401940044
KNUQ - Moffett Nas/Mtn, California, USA
Distance from station: N 14km
Uppdaterad: 03/03/2021 09:30
Klart
Klart
 Vind frn calm
Vind: Vindstilla
Temperatur: 11°C
Daggpunkt: 6°C
Luftfuktighet: 72%
Barometer: 1008.8 hPa
Clouds: Klart
Visibility: 16 km
2021/03/03 08:30 KNUQ 030830Z AUTO 00000KT 10SM CLR 11/06 A2979 RMK AO2
 
KPAO - Palo Alto, California, USA
Distance from station: NNV 23km
Uppdaterad: 03/03/2021 05:47
NOT Current
Genommulet
Genommulet
 Vind frn NV
Vind: NV 7 km/h
Temperatur: 11°C
Daggpunkt: 7°C
Luftfuktighet: 77%
Barometer: 1010.5 hPa
Clouds: Genommulet
Visibility: 16 km
Cloud details: Genommulet 3048 m
2021/03/03 04:47 KPAO 030447Z 31004KT 10SM OVC100 11/07 A2984 RMK LAST
KRHV - San Jose/Reid, California, USA
Distance from station: ONO 19km
Uppdaterad: 03/03/2021 06:55
NOT Current
vervgande molnigt
vervgande molnigt
 Vind frn calm
Vind: Vindstilla
Temperatur: 12°C
Daggpunkt: 6°C
Luftfuktighet: 67%
Barometer: 1010.5 hPa
Clouds: vervgande molnigt
Visibility: 16 km
Cloud details: vervgande molnigt 3658 m
2021/03/03 05:55 KRHV 030555Z 00000KT 10SM BKN120 12/06 A2984 RMK LAST
 
KOAK - Oakland, California, USA
Distance from station: NNV 50km
Uppdaterad: 03/03/2021 08:53
Genommulet
Genommulet
 Vind frn N
Vind: N 6 km/h
Temperatur: 12°C
Daggpunkt: 6°C
Luftfuktighet: 67%
Barometer: 1009.1 hPa
Clouds: Genommulet
Visibility: 16 km
Cloud details: Delvis molnigt 5486 m
Genommulet 6096 m
2021/03/03 07:53 KOAK 030753Z 01003KT 10SM SCT180 OVC200 12/06 A2980 RMK AO2 SLP091 T01170056 401890072 $
KSQL - San Carlos Airpo, California, USA
Distance from station: NV 34km
Uppdaterad: 03/03/2021 09:35
vervgande molnigt
vervgande molnigt
 Vind frn calm
Vind: Vindstilla
Temperatur: 10°C
Daggpunkt: 5°C
Luftfuktighet: 71%
Barometer: 1009.5 hPa
Clouds: vervgande molnigt
Visibility: 16 km
Cloud details: vervgande molnigt 91 m
2021/03/03 08:35 KSQL 030835Z AUTO 00000KT 10SM BKN003 10/05 A2981 RMK AO2
 
KSFO - San Francisco, California, USA
Distance from station: NV 49km
Uppdaterad: 03/03/2021 08:56
Genommulet
Genommulet
 Vind frn VNV
Vind: VNV 11 km/h
Temperatur: 12°C
Daggpunkt: 3°C
Luftfuktighet: 54%
Barometer: 1008.8 hPa
Clouds: Genommulet
Visibility: 16 km
Cloud details: Few Clouds 5486 m
Genommulet 6096 m
2021/03/03 07:56 KSFO 030756Z 30006KT 10SM FEW180 OVC200 12/03 A2979 RMK AO2 SLP089 T01170028 401830067
KE16 - San Martin, California, USA
Distance from station: OSO 43km
Uppdaterad: 03/03/2021 09:35
Few Clouds
Few Clouds
 Vind frn calm
Vind: Vindstilla
Temperatur: 8°C
Daggpunkt: 4°C
Luftfuktighet: 76%
Barometer: 1009.5 hPa
Clouds: Few Clouds
Visibility: 16 km
Cloud details: Few Clouds 518 m
2021/03/03 08:35 KE16 030835Z AUTO 00000KT 10SM FEW017 08/04 A2981 RMK AO2 PWINO PNO
 
KWVI - Watsonville, California, USA
Distance from station: SSO 44km
Uppdaterad: 03/03/2021 08:53
Klart
Klart
 Vind frn NV
Vind: NV 6 km/h
Temperatur: 8°C
Daggpunkt: 4°C
Luftfuktighet: 76%
Barometer: 1009.1 hPa
Clouds: Klart
Visibility: 16 km
2021/03/03 07:53 KWVI 030753Z AUTO 32003KT 10SM CLR 08/04 A2980 RMK AO2 SLP092 T00830044 401780028
KHAF - Half Moon Bay, California, USA
Distance from station: VNV 50km
Uppdaterad: 03/03/2021 09:35
Klart
Klart
 Vind frn calm
Vind: Vindstilla
Temperatur: 7°C
Daggpunkt: 4°C
Luftfuktighet: 81%
Barometer: 1009.1 hPa
Clouds: Klart
Visibility: 11 km
2021/03/03 08:35 KHAF 030835Z AUTO 00000KT 7SM CLR 07/04 A2980 RMK AO2
 
KHWD - Hayward, California, USA
Distance from station: N 44km
Uppdaterad: 03/03/2021 08:54
Klart
Klart
 Vind frn ONO
Vind: ONO 6 km/h
Temperatur: 10°C
Daggpunkt: 4°C
Luftfuktighet: 67%
Barometer: 1008.8 hPa
Clouds: Klart
Visibility: 16 km
2021/03/03 07:54 KHWD 030754Z 06003KT 10SM CLR 10/04 A2979 RMK AO2 SLP099 T01000044 401720061
KLVK - Livermore, California, USA
Distance from station: NNO 51km
Uppdaterad: 03/03/2021 08:53
Klart
Klart
 Vind frn ONO
Vind: ONO 6 km/h
Temperatur: 8°C
Daggpunkt: 0°C
Luftfuktighet: 57%
Barometer: 1009.1 hPa
Clouds: Klart
Visibility: 16 km
2021/03/03 07:53 KLVK 030753Z AUTO 07003KT 10SM CLR 08/00 A2980 RMK AO2 SLP088 T00780000 402110033